createdAt,value
2023-04-15T00:01:04.292Z,1.92
2023-04-15T00:04:07.564Z,1.60
2023-04-15T00:07:11.446Z,1.73
2023-04-15T00:10:14.479Z,2.00
2023-04-15T00:13:17.914Z,1.80
2023-04-15T00:16:20.657Z,1.83
2023-04-15T00:19:23.456Z,1.60
2023-04-15T00:22:25.754Z,1.55
2023-04-15T00:25:28.418Z,1.30
2023-04-15T00:28:31.118Z,1.58
2023-04-15T00:31:34.324Z,1.38
2023-04-15T00:34:37.756Z,1.45
2023-04-15T00:37:41.260Z,1.48
2023-04-15T00:40:44.468Z,1.45
2023-04-15T00:43:47.575Z,1.50
2023-04-15T00:46:50.596Z,1.50
2023-04-15T00:49:53.289Z,1.83
2023-04-15T00:52:56.142Z,1.70
2023-04-15T00:55:59.203Z,1.60
2023-04-15T00:59:02.614Z,1.70
2023-04-15T01:02:05.612Z,1.73
2023-04-15T01:05:08.512Z,1.70
2023-04-15T01:08:10.973Z,1.65
2023-04-15T01:11:13.984Z,1.65
2023-04-15T01:14:16.142Z,1.85
2023-04-15T01:17:18.627Z,1.70
2023-04-15T01:20:21.262Z,1.90
2023-04-15T01:23:24.055Z,1.90
2023-04-15T01:26:26.890Z,1.80
2023-04-15T01:29:29.580Z,1.80
2023-04-15T01:32:32.232Z,1.85
2023-04-15T01:35:35.256Z,1.80
2023-04-15T01:38:39.411Z,1.98
2023-04-15T01:41:42.865Z,2.10
2023-04-15T01:44:45.529Z,1.90
2023-04-15T01:47:48.601Z,2.00
2023-04-15T01:50:51.223Z,1.70
2023-04-15T01:53:53.960Z,1.60
2023-04-15T01:56:56.280Z,1.50
2023-04-15T01:59:59.981Z,1.30
2023-04-15T02:03:03.920Z,1.50
2023-04-15T02:06:07.145Z,1.52
2023-04-15T02:09:09.859Z,1.90
2023-04-15T02:12:12.703Z,1.67
2023-04-15T02:15:14.977Z,1.70
2023-04-15T02:18:17.931Z,1.65
2023-04-15T02:21:21.318Z,1.77
2023-04-15T02:24:24.434Z,1.35
2023-04-15T02:27:27.697Z,1.70
2023-04-15T02:30:29.937Z,1.80
2023-04-15T02:33:37.154Z,1.80
2023-04-15T02:36:40.198Z,1.80
2023-04-15T02:39:42.700Z,1.83
2023-04-15T02:42:45.464Z,1.90
2023-04-15T02:45:50.992Z,1.83
2023-04-15T02:48:53.426Z,1.98
2023-04-15T02:51:58.184Z,1.92
2023-04-15T02:55:01.938Z,2.20
2023-04-15T02:58:05.489Z,2.03
2023-04-15T03:01:08.111Z,1.65
2023-04-15T03:04:10.597Z,1.70
2023-04-15T03:07:13.146Z,1.80
2023-04-15T03:10:15.881Z,1.65
2023-04-15T03:13:18.619Z,1.98
2023-04-15T03:16:22.789Z,1.60
2023-04-15T03:19:25.501Z,1.60
2023-04-15T03:22:27.775Z,1.88
2023-04-15T03:25:30.724Z,1.80
2023-04-15T03:28:35.453Z,1.52
2023-04-15T03:31:38.379Z,1.50
2023-04-15T03:34:41.336Z,2.00
2023-04-15T03:37:43.892Z,1.65
2023-04-15T03:40:46.567Z,1.80
2023-04-15T03:43:49.548Z,1.60
2023-04-15T03:46:52.395Z,1.95
2023-04-15T03:49:55.400Z,1.73
2023-04-15T03:52:58.640Z,1.77
2023-04-15T03:56:02.142Z,1.70
2023-04-15T03:59:05.055Z,1.70
2023-04-15T04:02:08.301Z,1.58
2023-04-15T04:05:11.247Z,1.60
2023-04-15T04:08:14.150Z,1.60
2023-04-15T04:11:17.050Z,1.40
2023-04-15T04:14:19.895Z,1.55
2023-04-15T04:17:22.982Z,1.50
2023-04-15T04:20:25.940Z,1.50
2023-04-15T04:23:29.019Z,1.60
2023-04-15T04:26:32.500Z,1.60
2023-04-15T04:29:34.814Z,1.52
2023-04-15T04:32:37.634Z,1.52
2023-04-15T04:35:39.900Z,1.40
2023-04-15T04:38:42.673Z,1.45
2023-04-15T04:41:45.620Z,1.40
2023-04-15T04:44:48.541Z,1.27
2023-04-15T04:47:51.746Z,1.52
2023-04-15T04:50:55.461Z,1.67
2023-04-15T04:53:58.164Z,1.70
2023-04-15T04:57:01.024Z,1.60
2023-04-15T05:00:03.728Z,2.05
2023-04-15T05:03:06.979Z,1.65
2023-04-15T05:06:09.651Z,1.67
2023-04-15T05:09:11.614Z,1.35
2023-04-15T05:12:13.979Z,1.40
2023-04-15T05:15:17.207Z,1.60
2023-04-15T05:18:20.900Z,2.00
2023-04-15T05:21:23.277Z,1.63
2023-04-15T05:24:26.274Z,1.80
2023-04-15T05:27:29.243Z,1.38
2023-04-15T05:30:31.818Z,1.50
2023-04-15T05:33:35.033Z,1.50
2023-04-15T05:36:38.396Z,1.60
2023-04-15T05:39:40.853Z,1.40
2023-04-15T05:42:43.560Z,1.48
2023-04-15T05:45:46.750Z,1.63
2023-04-15T05:48:49.817Z,1.42
2023-04-15T05:51:52.672Z,1.30
2023-04-15T05:54:56.308Z,1.40
2023-04-15T05:57:59.249Z,1.70
2023-04-15T06:01:02.300Z,1.45
2023-04-15T06:04:04.745Z,1.52
2023-04-15T06:07:08.276Z,1.38
2023-04-15T06:10:11.403Z,1.50
2023-04-15T06:13:14.162Z,2.08
2023-04-15T06:16:17.406Z,2.25
2023-04-15T06:19:21.368Z,2.30
2023-04-15T06:22:24.514Z,1.98
2023-04-15T06:25:27.284Z,1.95
2023-04-15T06:28:30.087Z,2.03
2023-04-15T06:31:32.862Z,2.25
2023-04-15T06:34:35.954Z,1.90
2023-04-15T06:37:39.887Z,2.55
2023-04-15T06:40:42.383Z,1.92
2023-04-15T06:43:45.397Z,2.83
2023-04-15T06:46:48.283Z,3.25
2023-04-15T06:49:51.035Z,4.65
2023-04-15T06:52:53.313Z,4.50
2023-04-15T06:55:55.580Z,4.85
2023-04-15T06:58:58.501Z,5.05
2023-04-15T07:02:01.555Z,4.65
2023-04-15T07:05:04.280Z,4.55
2023-04-15T07:08:07.074Z,4.82
2023-04-15T07:11:09.242Z,4.90
2023-04-15T07:14:12.069Z,4.80
2023-04-15T07:17:14.813Z,4.47
2023-04-15T07:20:17.469Z,4.38
2023-04-15T07:23:20.596Z,4.47
2023-04-15T07:26:23.612Z,4.47
2023-04-15T07:29:26.701Z,5.20
2023-04-15T07:32:30.394Z,4.43
2023-04-15T07:35:33.249Z,4.55
2023-04-15T07:38:35.804Z,4.38
2023-04-15T07:41:39.000Z,4.18
2023-04-15T07:44:42.046Z,4.30
2023-04-15T07:47:44.639Z,3.70
2023-04-15T07:50:47.408Z,4.22
2023-04-15T07:53:50.111Z,3.90
2023-04-15T07:56:53.608Z,4.00
2023-04-15T07:59:56.092Z,3.53
2023-04-15T08:02:58.930Z,3.90
2023-04-15T08:06:00.974Z,2.95
2023-04-15T08:09:03.730Z,3.03
2023-04-15T08:12:06.813Z,3.20
2023-04-15T08:15:09.909Z,2.63
2023-04-15T08:18:13.814Z,3.53
2023-04-15T08:21:17.143Z,3.05
2023-04-15T08:24:20.690Z,2.90
2023-04-15T08:27:23.613Z,3.10
2023-04-15T08:30:26.104Z,3.33
2023-04-15T08:33:28.442Z,3.35
2023-04-15T08:36:30.774Z,3.58
2023-04-15T08:39:33.314Z,3.65
2023-04-15T08:42:36.235Z,3.47
2023-04-15T08:45:38.711Z,2.92
2023-04-15T08:48:41.186Z,3.13
2023-04-15T08:51:43.919Z,3.10
2023-04-15T08:54:46.876Z,2.58
2023-04-15T08:57:49.871Z,2.67
2023-04-15T09:00:52.253Z,2.33
2023-04-15T09:03:55.065Z,2.53
2023-04-15T09:06:58.043Z,2.45
2023-04-15T09:10:00.751Z,2.40
2023-04-15T09:13:03.598Z,2.50
2023-04-15T09:16:07.089Z,2.20
2023-04-15T09:19:09.776Z,2.35
2023-04-15T09:22:12.526Z,2.53
2023-04-15T09:25:15.550Z,2.30
2023-04-15T09:28:18.775Z,2.03
2023-04-15T09:31:21.712Z,2.10
2023-04-15T09:34:24.856Z,2.03
2023-04-15T09:37:32.438Z,1.80
2023-04-15T09:40:35.046Z,1.73
2023-04-15T09:43:37.813Z,2.00
2023-04-15T09:46:40.977Z,1.95
2023-04-15T09:49:44.108Z,1.70
2023-04-15T09:52:46.532Z,1.90
2023-04-15T09:55:49.063Z,1.90
2023-04-15T09:58:52.471Z,1.70
2023-04-15T10:01:56.061Z,1.33
2023-04-15T10:04:59.177Z,1.30
2023-04-15T10:08:01.392Z,1.42
2023-04-15T10:11:04.071Z,1.75
2023-04-15T10:14:07.297Z,1.60
2023-04-15T10:17:10.800Z,1.25
2023-04-15T10:20:13.437Z,1.50
2023-04-15T10:23:16.539Z,1.55
2023-04-15T10:26:18.894Z,1.65
2023-04-15T10:29:21.993Z,1.42
2023-04-15T10:32:24.832Z,1.48
2023-04-15T10:35:27.194Z,1.20
2023-04-15T10:38:29.905Z,1.52
2023-04-15T10:41:32.682Z,1.30
2023-04-15T10:44:35.496Z,1.30
2023-04-15T10:47:37.752Z,1.42
2023-04-15T10:50:40.021Z,1.50
2023-04-15T10:53:42.800Z,1.42
2023-04-15T10:56:45.940Z,1.58
2023-04-15T10:59:49.443Z,1.73
2023-04-15T11:02:52.182Z,1.60
2023-04-15T11:05:55.214Z,1.38
2023-04-15T11:08:57.557Z,1.40
2023-04-15T11:11:59.894Z,1.80
2023-04-15T11:15:02.480Z,1.65
2023-04-15T11:18:05.320Z,1.63
2023-04-15T11:21:07.814Z,1.83
2023-04-15T11:24:10.737Z,1.67
2023-04-15T11:27:13.725Z,1.75
2023-04-15T11:30:16.600Z,1.80
2023-04-15T11:33:20.550Z,1.40
2023-04-15T11:36:24.018Z,1.65
2023-04-15T11:39:26.543Z,1.48
2023-04-15T11:42:39.274Z,1.70
2023-04-15T11:45:49.950Z,1.25
2023-04-15T11:48:53.108Z,1.42
2023-04-15T11:51:56.003Z,1.35
2023-04-15T11:54:58.660Z,1.20
2023-04-15T11:58:01.076Z,1.90
2023-04-15T12:01:04.574Z,1.80
2023-04-15T12:04:07.514Z,1.45
2023-04-15T12:07:10.708Z,1.55
2023-04-15T12:10:13.574Z,1.50
2023-04-15T12:13:15.905Z,1.40
2023-04-15T12:16:18.908Z,1.38
2023-04-15T12:19:22.498Z,1.50
2023-04-15T12:22:25.884Z,2.00
2023-04-15T12:25:29.357Z,1.52
2023-04-15T12:28:32.146Z,1.50
2023-04-15T12:31:34.444Z,1.27
2023-04-15T12:34:37.485Z,1.38
2023-04-15T12:37:40.652Z,1.50
2023-04-15T12:40:43.504Z,1.10
2023-04-15T12:43:47.318Z,1.00
2023-04-15T12:46:50.411Z,1.13
2023-04-15T12:49:53.167Z,1.00
2023-04-15T12:52:56.172Z,0.93
2023-04-15T12:55:59.092Z,1.05
2023-04-15T12:59:01.847Z,1.20
2023-04-15T13:02:04.733Z,1.10
2023-04-15T13:05:07.625Z,1.00
2023-04-15T13:08:09.918Z,1.42
2023-04-15T13:11:12.360Z,1.00
2023-04-15T13:14:15.517Z,0.90
2023-04-15T13:17:19.092Z,0.90
2023-04-15T13:20:21.593Z,0.93
2023-04-15T13:23:24.514Z,0.90
2023-04-15T13:26:28.520Z,1.08
2023-04-15T13:29:32.610Z,0.80
2023-04-15T13:32:36.253Z,0.82
2023-04-15T13:35:39.184Z,0.77
2023-04-15T13:38:42.294Z,0.73
2023-04-15T13:41:45.116Z,0.70
2023-04-15T13:44:47.606Z,0.93
2023-04-15T13:47:50.317Z,0.98
2023-04-15T13:50:54.006Z,0.75
2023-04-15T13:53:56.372Z,0.90
2023-04-15T13:56:58.612Z,1.00
2023-04-15T14:00:01.218Z,0.70
2023-04-15T14:03:04.034Z,0.90
2023-04-15T14:06:07.332Z,0.80
2023-04-15T14:09:11.257Z,0.82
2023-04-15T14:12:13.896Z,0.85
2023-04-15T14:15:16.398Z,0.70
2023-04-15T14:18:18.466Z,0.90
2023-04-15T14:21:21.216Z,0.80
2023-04-15T14:24:24.316Z,0.82
2023-04-15T14:27:27.189Z,0.75
2023-04-15T14:30:29.461Z,1.00
2023-04-15T14:33:32.346Z,0.90
2023-04-15T14:36:35.260Z,0.80
2023-04-15T14:39:37.492Z,0.93
2023-04-15T14:42:40.070Z,0.90
2023-04-15T14:45:44.682Z,0.90
2023-04-15T14:48:49.394Z,0.85
2023-04-15T14:51:53.238Z,1.33
2023-04-15T14:54:55.714Z,1.00
2023-04-15T14:57:58.514Z,0.90
2023-04-15T15:01:00.707Z,0.80
2023-04-15T15:04:03.638Z,1.13
2023-04-15T15:07:06.438Z,1.00
2023-04-15T15:10:09.164Z,1.08
2023-04-15T15:13:12.005Z,1.10
2023-04-15T15:16:15.914Z,1.27
2023-04-15T15:19:19.212Z,1.00
2023-04-15T15:22:22.176Z,1.10
2023-04-15T15:25:25.031Z,1.00
2023-04-15T15:28:28.257Z,1.00
2023-04-15T15:31:31.981Z,1.00
2023-04-15T15:34:35.281Z,0.95
2023-04-15T15:37:37.742Z,0.90
2023-04-15T15:40:40.403Z,1.00
2023-04-15T15:43:43.510Z,1.10
2023-04-15T15:46:46.393Z,1.00
2023-04-15T15:49:49.276Z,1.08
2023-04-15T15:52:51.714Z,1.08
2023-04-15T15:55:54.901Z,0.98
2023-04-15T15:58:57.948Z,1.02
2023-04-15T16:02:01.117Z,1.05
2023-04-15T16:05:04.697Z,0.88
2023-04-15T16:08:07.910Z,0.98
2023-04-15T16:11:10.670Z,1.20
2023-04-15T16:14:13.629Z,1.00
2023-04-15T16:17:17.283Z,0.90
2023-04-15T16:20:19.947Z,1.10
2023-04-15T16:23:23.845Z,1.00
2023-04-15T16:26:27.045Z,0.90
2023-04-15T16:29:30.626Z,1.27
2023-04-15T16:32:33.409Z,1.17
2023-04-15T16:35:36.213Z,0.90
2023-04-15T16:38:38.654Z,1.00
2023-04-15T16:41:41.662Z,0.80
2023-04-15T16:44:43.939Z,1.52
2023-04-15T16:47:47.063Z,1.00
2023-04-15T16:50:50.323Z,1.27
2023-04-15T16:53:53.115Z,1.10
2023-04-15T16:56:55.966Z,0.90
2023-04-15T17:00:00.168Z,1.40
2023-04-15T17:03:03.042Z,1.40
2023-04-15T17:06:05.517Z,1.27
2023-04-15T17:09:08.042Z,2.05
2023-04-15T17:12:10.874Z,4.00
2023-04-15T17:15:13.117Z,3.35
2023-04-15T17:18:15.879Z,3.90
2023-04-15T17:21:19.160Z,3.40
2023-04-15T17:24:22.762Z,3.10
2023-04-15T17:27:26.482Z,3.28
2023-04-15T17:30:29.883Z,2.70
2023-04-15T17:33:55.402Z,3.38
2023-04-15T17:36:55.765Z,2.72
2023-04-15T17:39:58.468Z,2.72
2023-04-15T17:43:01.785Z,3.28
2023-04-15T17:46:05.453Z,3.10
2023-04-15T17:49:07.794Z,2.72
2023-04-15T17:52:10.798Z,2.80
2023-04-15T17:55:13.777Z,2.58
2023-04-15T17:58:16.716Z,2.25
2023-04-15T18:01:19.522Z,2.55
2023-04-15T18:04:25.830Z,2.42
2023-04-15T18:07:29.177Z,2.50
2023-04-15T18:10:31.826Z,2.05
2023-04-15T18:13:34.821Z,2.20
2023-04-15T18:16:37.681Z,1.98
2023-04-15T18:19:40.337Z,2.00
2023-04-15T18:22:43.611Z,2.10
2023-04-15T18:25:47.011Z,1.95
2023-04-15T18:28:50.257Z,1.92
2023-04-15T18:31:53.836Z,2.13
2023-04-15T18:34:56.406Z,1.83
2023-04-15T18:37:59.710Z,1.90
2023-04-15T18:41:02.766Z,1.70
2023-04-15T18:44:05.492Z,1.67
2023-04-15T18:47:08.795Z,1.70
2023-04-15T18:50:12.254Z,1.58
2023-04-15T18:53:15.325Z,1.60
2023-04-15T18:56:18.352Z,1.50
2023-04-15T18:59:29.615Z,1.55
2023-04-15T19:02:33.690Z,1.40
2023-04-15T19:05:37.311Z,1.40
2023-04-15T19:08:39.563Z,1.55
2023-04-15T19:11:42.245Z,1.60
2023-04-15T19:14:45.184Z,1.50
2023-04-15T19:17:48.704Z,1.13
2023-04-15T19:20:51.748Z,1.33
2023-04-15T19:23:53.825Z,1.33
2023-04-15T19:26:56.704Z,1.25
2023-04-15T19:29:59.741Z,1.20
2023-04-15T19:33:02.835Z,1.38
2023-04-15T19:36:06.810Z,1.23
2023-04-15T19:39:09.756Z,1.27
2023-04-15T19:42:12.272Z,1.20
2023-04-15T19:45:14.852Z,1.20
2023-04-15T19:48:18.185Z,1.10
2023-04-15T19:51:22.018Z,1.02
2023-04-15T19:54:25.457Z,0.90
2023-04-15T19:57:28.443Z,0.98
2023-04-15T20:00:31.316Z,0.93
2023-04-15T20:03:34.809Z,0.90
2023-04-15T20:06:38.264Z,0.90
2023-04-15T20:09:40.859Z,0.82
2023-04-15T20:12:51.185Z,1.13
2023-04-15T20:15:55.998Z,0.85
2023-04-15T20:18:59.492Z,1.20
2023-04-15T20:22:03.041Z,0.80
2023-04-15T20:25:05.832Z,1.05
2023-04-15T20:28:08.389Z,1.00
2023-04-15T20:31:10.785Z,0.65
2023-04-15T20:34:13.519Z,0.90
2023-04-15T20:37:15.858Z,1.05
2023-04-15T20:40:18.900Z,1.10
2023-04-15T20:43:21.764Z,0.80
2023-04-15T20:46:26.682Z,0.85
2023-04-15T20:49:30.490Z,1.02
2023-04-15T20:52:33.684Z,0.90
2023-04-15T20:55:36.455Z,1.00
2023-04-15T20:58:38.949Z,0.90
2023-04-15T21:01:41.595Z,0.93
2023-04-15T21:04:44.829Z,0.95
2023-04-15T21:07:48.292Z,0.90
2023-04-15T21:10:51.040Z,1.00
2023-04-15T21:13:53.732Z,0.90
2023-04-15T21:16:56.508Z,1.00
2023-04-15T21:19:59.361Z,0.90
2023-04-15T21:23:02.129Z,0.93
2023-04-15T21:26:04.711Z,1.42
2023-04-15T21:29:11.119Z,1.00
2023-04-15T21:32:15.372Z,0.90
2023-04-15T21:35:17.812Z,0.80
2023-04-15T21:38:23.122Z,0.80
2023-04-15T21:41:26.215Z,1.30
2023-04-15T21:44:29.319Z,0.93
2023-04-15T21:47:32.212Z,1.10
2023-04-15T21:50:54.903Z,0.90
2023-04-15T21:53:57.617Z,0.90
2023-04-15T21:57:01.634Z,1.10
2023-04-15T22:00:04.268Z,1.00
2023-04-15T22:03:10.320Z,0.90
2023-04-15T22:06:13.380Z,0.93
2023-04-15T22:09:16.227Z,1.27
2023-04-15T22:12:18.966Z,1.00
2023-04-15T22:15:22.497Z,0.70
2023-04-15T22:18:25.395Z,0.93
2023-04-15T22:21:27.406Z,0.90
2023-04-15T22:24:38.090Z,1.00
2023-04-15T22:27:43.219Z,1.00
2023-04-15T22:30:45.896Z,0.90
2023-04-15T22:33:48.480Z,0.90
2023-04-15T22:36:51.581Z,0.75
2023-04-15T22:39:54.574Z,0.88
2023-04-15T22:42:57.512Z,0.80
2023-04-15T22:45:59.752Z,0.90
2023-04-15T22:49:02.519Z,1.02
2023-04-15T22:52:05.628Z,0.90
2023-04-15T22:55:08.455Z,0.85
2023-04-15T22:58:11.154Z,1.00
2023-04-15T23:01:13.184Z,0.95
2023-04-15T23:04:25.172Z,0.90
2023-04-15T23:07:28.528Z,0.80
2023-04-15T23:10:31.328Z,0.82
2023-04-15T23:13:34.552Z,1.05
2023-04-15T23:16:37.622Z,0.85
2023-04-15T23:19:40.042Z,0.90
2023-04-15T23:22:42.357Z,0.98
2023-04-15T23:25:45.605Z,1.35
2023-04-15T23:28:49.594Z,1.17
2023-04-15T23:31:53.139Z,1.08
2023-04-15T23:34:55.837Z,1.25
2023-04-15T23:37:59.369Z,1.30
2023-04-15T23:41:02.638Z,1.10
2023-04-15T23:44:06.214Z,1.00
2023-04-15T23:47:09.208Z,1.33
2023-04-15T23:50:11.652Z,1.27
2023-04-15T23:53:14.177Z,1.15
2023-04-15T23:56:16.540Z,1.30
2023-04-15T23:59:19.498Z,1.63
